createdAt,value
2019-02-16T00:00:48.880Z,25.53
2019-02-16T00:03:18.493Z,30.33
2019-02-16T00:05:48.108Z,29.30
2019-02-16T00:08:18.961Z,30.17
2019-02-16T00:10:48.655Z,22.20
2019-02-16T00:13:18.347Z,24.37
2019-02-16T00:15:47.949Z,26.13
2019-02-16T00:18:17.598Z,21.97
2019-02-16T00:20:47.313Z,22.87
2019-02-16T00:23:16.911Z,23.50
2019-02-16T00:25:46.534Z,25.13
2019-02-16T00:28:16.191Z,25.37
2019-02-16T00:30:45.788Z,25.13
2019-02-16T00:33:15.431Z,24.93
2019-02-16T00:35:45.041Z,27.30
2019-02-16T00:38:14.749Z,24.20
2019-02-16T00:40:45.697Z,23.07
2019-02-16T00:43:15.307Z,23.73
2019-02-16T00:45:44.946Z,25.40
2019-02-16T00:48:14.656Z,24.00
2019-02-16T00:50:44.524Z,23.03
2019-02-16T00:53:14.122Z,23.37
2019-02-16T00:55:43.773Z,29.20
2019-02-16T00:58:13.390Z,22.23
2019-02-16T01:00:43.054Z,24.23
2019-02-16T01:03:12.670Z,22.23
2019-02-16T01:05:42.321Z,22.80
2019-02-16T01:08:12.000Z,21.23
2019-02-16T01:10:41.620Z,22.63
2019-02-16T01:13:11.236Z,23.63
2019-02-16T01:15:41.103Z,21.57
2019-02-16T01:18:10.719Z,22.03
2019-02-16T01:20:40.305Z,25.37
2019-02-16T01:23:09.938Z,25.57
2019-02-16T01:25:39.612Z,24.40
2019-02-16T01:28:09.212Z,21.50
2019-02-16T01:30:38.816Z,24.67
2019-02-16T01:33:09.715Z,22.23
2019-02-16T01:35:39.332Z,20.97
2019-02-16T01:38:08.912Z,21.90
2019-02-16T01:40:38.845Z,18.97
2019-02-16T01:43:08.457Z,20.43
2019-02-16T01:45:38.049Z,18.93
2019-02-16T01:48:07.675Z,20.27
2019-02-16T01:50:37.311Z,23.17
2019-02-16T01:53:06.935Z,17.47
2019-02-16T01:55:36.584Z,21.43
2019-02-16T01:58:06.196Z,22.43
2019-02-16T02:00:35.844Z,22.50
2019-02-16T02:03:05.515Z,21.23
2019-02-16T02:05:35.101Z,20.50
2019-02-16T02:08:04.705Z,22.27
2019-02-16T02:10:34.360Z,21.70
2019-02-16T02:13:04.687Z,19.20
2019-02-16T02:15:34.293Z,21.53
2019-02-16T02:18:03.918Z,21.70
2019-02-16T02:20:33.529Z,20.63
2019-02-16T02:23:03.125Z,19.33
2019-02-16T02:25:32.776Z,20.53
2019-02-16T02:28:02.381Z,21.67
2019-02-16T02:30:32.090Z,17.77
2019-02-16T02:33:01.718Z,15.07
2019-02-16T02:35:31.336Z,17.70
2019-02-16T02:38:00.957Z,15.63
2019-02-16T02:40:30.597Z,15.23
2019-02-16T02:43:00.323Z,16.77
2019-02-16T02:45:29.911Z,14.53
2019-02-16T02:47:59.529Z,16.43
2019-02-16T02:50:29.142Z,15.50
2019-02-16T02:52:58.765Z,16.43
2019-02-16T02:55:28.388Z,19.27
2019-02-16T02:57:58.049Z,16.67
2019-02-16T03:00:27.723Z,21.43
2019-02-16T03:02:57.314Z,17.07
2019-02-16T03:05:26.928Z,19.57
2019-02-16T03:07:56.539Z,16.00
2019-02-16T03:10:26.129Z,16.70
2019-02-16T03:12:55.765Z,18.83
2019-02-16T03:15:25.485Z,19.83
2019-02-16T03:17:55.061Z,17.90
2019-02-16T03:20:24.709Z,19.00
2019-02-16T03:23:05.877Z,17.93
2019-02-16T03:25:35.477Z,17.67
2019-02-16T03:28:47.697Z,26.57
2019-02-16T03:31:36.575Z,16.80
2019-02-16T03:34:12.339Z,21.43
2019-02-16T03:36:54.869Z,18.33
2019-02-16T03:39:28.671Z,17.20
2019-02-16T03:41:58.268Z,18.10
2019-02-16T03:44:27.955Z,24.47
2019-02-16T03:46:57.518Z,29.10
2019-02-16T03:49:27.192Z,28.70
2019-02-16T03:51:56.829Z,30.43
2019-02-16T03:54:26.432Z,29.57
2019-02-16T03:56:56.109Z,27.40
2019-02-16T03:59:25.773Z,26.27
2019-02-16T04:01:55.381Z,27.50
2019-02-16T04:04:25.013Z,32.87
2019-02-16T04:06:54.626Z,31.60
2019-02-16T04:09:24.246Z,25.87
2019-02-16T04:11:53.880Z,22.13
2019-02-16T04:14:23.493Z,22.17
2019-02-16T04:16:53.135Z,18.03
2019-02-16T04:19:22.738Z,17.63
2019-02-16T04:21:52.357Z,18.40
2019-02-16T04:24:21.978Z,14.53
2019-02-16T04:26:51.583Z,15.23
2019-02-16T04:29:21.161Z,19.37
2019-02-16T04:31:50.819Z,15.83
2019-02-16T04:34:20.404Z,18.80
2019-02-16T04:36:49.996Z,12.33
2019-02-16T04:39:20.216Z,13.50
2019-02-16T04:41:49.850Z,12.23
2019-02-16T04:44:19.462Z,10.47
2019-02-16T04:46:49.070Z,12.10
2019-02-16T04:49:18.663Z,10.67
2019-02-16T04:51:48.361Z,11.27
2019-02-16T04:54:17.957Z,11.67
2019-02-16T04:56:47.605Z,11.13
2019-02-16T04:59:17.221Z,12.53
2019-02-16T05:01:46.870Z,12.80
2019-02-16T05:04:16.549Z,11.87
2019-02-16T05:06:46.146Z,14.77
2019-02-16T05:09:15.733Z,15.23
2019-02-16T05:11:45.339Z,14.17
2019-02-16T05:14:14.957Z,14.47
2019-02-16T05:16:44.596Z,12.97
2019-02-16T05:19:15.595Z,11.07
2019-02-16T05:21:45.164Z,9.20
2019-02-16T05:24:14.789Z,9.30
2019-02-16T05:26:44.440Z,12.07
2019-02-16T05:29:14.092Z,14.17
2019-02-16T05:31:43.705Z,17.33
2019-02-16T05:34:13.308Z,11.23
2019-02-16T05:36:42.960Z,10.17
2019-02-16T05:39:12.567Z,14.43
2019-02-16T05:41:42.204Z,10.77
2019-02-16T05:44:11.982Z,24.93
2019-02-16T05:46:41.593Z,11.57
2019-02-16T05:49:11.243Z,19.20
2019-02-16T05:51:40.800Z,12.33
2019-02-16T05:54:11.757Z,11.37
2019-02-16T05:56:41.370Z,23.87
2019-02-16T05:59:12.264Z,26.07
2019-02-16T06:01:42.479Z,26.73
2019-02-16T06:04:21.078Z,20.13
2019-02-16T06:06:50.664Z,22.73
2019-02-16T06:09:20.289Z,20.07
2019-02-16T06:11:49.917Z,19.87
2019-02-16T06:14:19.529Z,17.03
2019-02-16T06:16:50.353Z,18.23
2019-02-16T06:19:20.010Z,18.27
2019-02-16T06:21:49.617Z,19.17
2019-02-16T06:24:19.238Z,14.60
2019-02-16T06:26:48.875Z,18.83
2019-02-16T06:29:18.480Z,13.17
2019-02-16T06:31:48.132Z,19.30
2019-02-16T06:34:17.822Z,15.03
2019-02-16T06:36:47.421Z,14.13
2019-02-16T06:39:17.038Z,16.67
2019-02-16T06:41:46.653Z,11.47
2019-02-16T06:44:18.873Z,11.97
2019-02-16T06:46:48.511Z,15.20
2019-02-16T06:49:18.121Z,33.40
2019-02-16T06:51:47.780Z,32.40
2019-02-16T06:54:17.465Z,22.83
2019-02-16T06:56:53.334Z,17.17
2019-02-16T06:59:23.977Z,12.37
2019-02-16T07:01:54.389Z,15.53
2019-02-16T07:04:25.238Z,13.13
2019-02-16T07:06:54.837Z,12.43
2019-02-16T07:09:24.425Z,13.87
2019-02-16T07:11:55.280Z,9.73
2019-02-16T07:14:24.893Z,9.67
2019-02-16T07:17:00.677Z,9.47
2019-02-16T07:19:33.559Z,6.83
2019-02-16T07:22:03.181Z,7.37
2019-02-16T07:24:32.796Z,6.63
2019-02-16T07:27:03.516Z,7.50
2019-02-16T07:29:34.386Z,7.77
2019-02-16T07:32:06.446Z,8.53
2019-02-16T07:34:37.925Z,10.93
2019-02-16T07:37:07.577Z,10.47
2019-02-16T07:39:37.202Z,9.80
2019-02-16T07:42:06.822Z,11.23
2019-02-16T07:44:42.901Z,8.37
2019-02-16T07:47:18.254Z,7.57
2019-02-16T07:49:52.097Z,7.47
2019-02-16T07:52:28.093Z,6.67
2019-02-16T07:55:02.970Z,11.53
2019-02-16T07:57:38.371Z,10.57
2019-02-16T08:00:14.533Z,8.43
2019-02-16T08:03:53.885Z,7.97
2019-02-16T08:06:43.905Z,6.53
2019-02-16T08:09:32.985Z,7.13
2019-02-16T08:12:41.033Z,37.60
2019-02-16T08:15:14.890Z,17.80
2019-02-16T08:17:52.090Z,9.77
2019-02-16T08:20:34.036Z,7.27
2019-02-16T08:23:10.117Z,12.10
2019-02-16T08:25:50.078Z,7.83
2019-02-16T08:28:25.354Z,9.53
2019-02-16T08:31:01.518Z,6.37
2019-02-16T08:35:43.033Z,7.47
2019-02-16T08:38:22.930Z,15.33
2019-02-16T08:41:02.790Z,6.70
2019-02-16T08:43:38.463Z,7.03
2019-02-16T08:47:14.154Z,5.42
2019-02-16T08:50:01.229Z,8.20
2019-02-16T08:53:09.372Z,8.93
2019-02-16T08:55:49.271Z,6.55
2019-02-16T08:58:24.302Z,9.18
2019-02-16T09:01:57.233Z,7.83
2019-02-16T09:04:32.365Z,11.15
2019-02-16T09:07:08.514Z,8.10
2019-02-16T09:09:45.644Z,10.68
2019-02-16T09:12:23.804Z,9.75
2019-02-16T09:14:57.928Z,8.48
2019-02-16T09:17:33.074Z,8.40
2019-02-16T09:20:06.981Z,12.75
2019-02-16T09:22:43.925Z,11.40
2019-02-16T09:25:22.698Z,9.80
2019-02-16T09:27:57.510Z,7.72
2019-02-16T09:30:33.326Z,8.98
2019-02-16T09:33:09.534Z,9.20
2019-02-16T09:35:46.461Z,9.63
2019-02-16T09:38:23.420Z,11.18
2019-02-16T09:40:57.337Z,9.90
2019-02-16T09:43:35.458Z,12.03
2019-02-16T09:46:09.394Z,11.53
2019-02-16T09:48:44.137Z,8.50
2019-02-16T09:51:19.596Z,8.40
2019-02-16T09:53:55.342Z,13.78
2019-02-16T09:56:30.208Z,6.95
2019-02-16T09:59:07.999Z,8.63
2019-02-16T10:01:53.375Z,7.58
2019-02-16T10:04:31.236Z,7.90
2019-02-16T10:07:11.127Z,6.55
2019-02-16T10:09:51.350Z,10.50
2019-02-16T10:12:24.562Z,7.37
2019-02-16T10:15:00.913Z,8.55
2019-02-16T10:17:36.830Z,6.35
2019-02-16T10:20:11.961Z,6.85
2019-02-16T10:22:48.909Z,7.83
2019-02-16T10:25:25.842Z,7.50
2019-02-16T10:28:03.753Z,20.23
2019-02-16T10:30:40.317Z,7.72
2019-02-16T10:33:14.426Z,8.15
2019-02-16T10:35:48.438Z,9.55
2019-02-16T10:39:22.217Z,7.05
2019-02-16T10:41:57.141Z,6.65
2019-02-16T10:44:34.113Z,9.38
2019-02-16T10:47:29.100Z,7.30
2019-02-16T10:50:05.449Z,5.58
2019-02-16T10:52:44.454Z,5.47
2019-02-16T10:56:19.116Z,10.70
2019-02-16T10:58:59.910Z,5.47
2019-02-16T11:01:35.715Z,7.05
2019-02-16T11:04:25.394Z,7.53
2019-02-16T11:07:01.775Z,7.08
2019-02-16T11:09:40.557Z,6.95
2019-02-16T11:12:23.590Z,7.05
2019-02-16T11:14:59.418Z,4.47
2019-02-16T11:17:35.518Z,4.78
2019-02-16T11:22:19.071Z,12.58
2019-02-16T11:24:52.974Z,4.20
2019-02-16T11:27:31.217Z,6.85
2019-02-16T11:30:37.461Z,10.53
2019-02-16T11:33:18.818Z,7.45
2019-02-16T11:35:57.682Z,5.60
2019-02-16T11:38:31.597Z,5.12
2019-02-16T11:41:06.452Z,6.12
2019-02-16T11:43:45.395Z,12.55
2019-02-16T11:46:20.144Z,5.70
2019-02-16T11:48:58.266Z,8.78
2019-02-16T11:51:47.886Z,6.92
2019-02-16T11:54:22.957Z,7.17
2019-02-16T11:56:57.930Z,7.53
2019-02-16T11:59:37.636Z,9.53
2019-02-16T12:02:12.685Z,7.20
2019-02-16T12:04:50.953Z,6.83
2019-02-16T12:07:25.866Z,10.70
2019-02-16T12:10:33.574Z,6.00
2019-02-16T12:13:08.749Z,6.42
2019-02-16T12:15:43.587Z,8.13
2019-02-16T12:18:21.385Z,6.47
2019-02-16T12:20:58.369Z,6.72
2019-02-16T12:23:33.983Z,7.50
2019-02-16T12:26:19.643Z,9.28
2019-02-16T12:28:57.213Z,10.63
2019-02-16T12:33:34.733Z,6.40
2019-02-16T12:36:12.630Z,6.75
2019-02-16T12:39:46.306Z,10.63
2019-02-16T12:42:51.545Z,7.12
2019-02-16T12:45:33.457Z,8.70
2019-02-16T12:48:09.570Z,6.70
2019-02-16T12:51:47.202Z,8.97
2019-02-16T12:54:25.383Z,6.60
2019-02-16T12:56:59.342Z,7.20
2019-02-16T13:00:39.791Z,6.77
2019-02-16T13:03:19.657Z,11.53
2019-02-16T13:05:55.469Z,13.63
2019-02-16T13:08:31.465Z,8.83
2019-02-16T13:11:06.154Z,8.17
2019-02-16T13:13:43.954Z,6.73
2019-02-16T13:16:19.043Z,7.43
2019-02-16T13:18:53.046Z,9.50
2019-02-16T13:21:28.844Z,8.97
2019-02-16T13:24:09.460Z,6.67
2019-02-16T13:26:48.381Z,7.63
2019-02-16T13:29:26.795Z,3.83
2019-02-16T13:33:08.742Z,4.57
2019-02-16T13:35:44.491Z,4.10
2019-02-16T13:40:24.895Z,5.53
2019-02-16T13:43:02.725Z,3.70
2019-02-16T13:45:42.873Z,7.20
2019-02-16T13:48:21.185Z,4.20
2019-02-16T13:51:01.210Z,9.93
2019-02-16T13:54:38.219Z,5.80
2019-02-16T13:59:17.182Z,5.40
2019-02-16T14:01:54.457Z,4.30
2019-02-16T14:04:41.680Z,4.63
2019-02-16T14:07:18.165Z,7.10
2019-02-16T14:09:53.487Z,6.37
2019-02-16T14:14:35.977Z,8.13
2019-02-16T14:18:10.122Z,5.60
2019-02-16T14:20:39.751Z,7.07
2019-02-16T14:23:09.413Z,6.50
2019-02-16T14:25:44.836Z,6.80
2019-02-16T14:28:11.665Z,6.73
2019-02-16T14:30:41.324Z,5.50
2019-02-16T14:33:10.972Z,5.33
2019-02-16T14:35:40.616Z,5.43
2019-02-16T14:38:15.525Z,5.83
2019-02-16T14:40:45.165Z,8.30
2019-02-16T14:43:15.565Z,8.57
2019-02-16T14:45:45.227Z,7.13
2019-02-16T14:48:14.843Z,6.33
2019-02-16T14:50:44.473Z,5.03
2019-02-16T14:53:16.556Z,6.20
2019-02-16T14:55:53.695Z,8.43
2019-02-16T14:58:18.403Z,6.43
2019-02-16T15:00:50.539Z,7.70
2019-02-16T15:03:21.126Z,6.70
2019-02-16T15:05:50.847Z,6.50
2019-02-16T15:08:20.496Z,6.27
2019-02-16T15:10:51.099Z,7.17
2019-02-16T15:13:30.951Z,7.40
2019-02-16T15:16:00.613Z,12.50
2019-02-16T15:18:34.165Z,13.07
2019-02-16T15:21:05.324Z,13.80
2019-02-16T15:23:35.008Z,9.53
2019-02-16T15:26:04.729Z,9.20
2019-02-16T15:28:35.111Z,9.67
2019-02-16T15:31:06.006Z,9.70
2019-02-16T15:33:36.719Z,9.70
2019-02-16T15:36:07.711Z,13.07
2019-02-16T15:38:38.952Z,10.57
2019-02-16T15:41:09.967Z,8.10
2019-02-16T15:43:43.717Z,10.67
2019-02-16T15:46:14.296Z,17.40
2019-02-16T15:48:43.959Z,10.30
2019-02-16T15:51:18.692Z,9.80
2019-02-16T15:53:47.261Z,16.47
2019-02-16T15:56:16.929Z,18.87
2019-02-16T15:58:47.722Z,11.53
2019-02-16T16:01:17.431Z,22.93
2019-02-16T16:03:47.167Z,12.43
2019-02-16T16:06:17.785Z,12.70
2019-02-16T16:08:52.055Z,14.53
2019-02-16T16:11:59.191Z,10.20
2019-02-16T16:14:36.094Z,13.70
2019-02-16T16:17:12.459Z,9.60
2019-02-16T16:19:50.286Z,11.33
2019-02-16T16:22:29.640Z,12.03
2019-02-16T16:25:41.462Z,9.13
2019-02-16T16:28:19.841Z,8.50
2019-02-16T16:30:57.977Z,11.57
2019-02-16T16:34:05.235Z,10.67
2019-02-16T16:36:41.051Z,8.20
2019-02-16T16:39:17.318Z,10.83
2019-02-16T16:41:52.388Z,15.10
2019-02-16T16:44:32.402Z,12.43
2019-02-16T16:47:07.405Z,21.03
2019-02-16T16:50:45.366Z,15.17
2019-02-16T16:53:23.941Z,13.47
2019-02-16T16:55:58.683Z,12.47
2019-02-16T16:58:33.599Z,12.40
2019-02-16T17:01:13.430Z,17.63
2019-02-16T17:03:51.653Z,14.67
2019-02-16T17:06:28.404Z,15.07
2019-02-16T17:09:06.027Z,16.13
2019-02-16T17:11:42.290Z,14.03
2019-02-16T17:14:19.917Z,18.03
2019-02-16T17:16:59.442Z,15.20
2019-02-16T17:19:31.814Z,16.37
2019-02-16T17:23:08.912Z,17.30
2019-02-16T17:25:44.126Z,16.87
2019-02-16T17:28:18.953Z,15.43
2019-02-16T17:30:52.877Z,13.40
2019-02-16T17:33:34.073Z,12.57
2019-02-16T17:36:39.373Z,13.77
2019-02-16T17:39:13.309Z,16.13
2019-02-16T17:41:49.067Z,12.20
2019-02-16T17:44:24.115Z,11.87
2019-02-16T17:46:59.114Z,10.17
2019-02-16T17:49:39.111Z,10.87
2019-02-16T17:52:18.712Z,9.33
2019-02-16T17:54:55.358Z,15.03
2019-02-16T17:57:34.449Z,17.00
2019-02-16T18:02:12.682Z,9.80
2019-02-16T18:04:47.720Z,7.63
2019-02-16T18:07:21.615Z,10.90
2019-02-16T18:10:31.995Z,9.27
2019-02-16T18:13:08.672Z,12.10
2019-02-16T18:15:48.509Z,9.83
2019-02-16T18:18:26.296Z,11.37
2019-02-16T18:21:02.334Z,10.87
2019-02-16T18:23:37.353Z,11.53
2019-02-16T18:27:10.256Z,12.23
2019-02-16T18:29:47.021Z,12.40
2019-02-16T18:32:31.091Z,11.43
2019-02-16T18:37:02.550Z,16.53
2019-02-16T18:40:15.372Z,13.20
2019-02-16T18:42:49.213Z,12.27
2019-02-16T18:45:23.979Z,13.37
2019-02-16T18:48:03.828Z,25.10
2019-02-16T18:50:41.679Z,16.40
2019-02-16T18:53:16.500Z,12.77
2019-02-16T18:55:53.270Z,10.30
2019-02-16T18:58:31.240Z,11.67
2019-02-16T19:01:17.378Z,11.80
2019-02-16T19:03:52.362Z,17.60
2019-02-16T19:06:29.341Z,12.97
2019-02-16T19:09:03.233Z,11.90
2019-02-16T19:11:38.405Z,13.60
2019-02-16T19:15:15.320Z,15.67
2019-02-16T19:18:00.466Z,14.20
2019-02-16T19:21:12.157Z,19.27
2019-02-16T19:23:49.077Z,15.17
2019-02-16T19:28:27.706Z,12.23
2019-02-16T19:31:02.579Z,11.23
2019-02-16T19:33:42.505Z,14.30
2019-02-16T19:36:16.353Z,20.17
2019-02-16T19:39:08.498Z,10.57
2019-02-16T19:41:45.881Z,13.83
2019-02-16T19:45:25.762Z,17.90
2019-02-16T19:47:59.616Z,15.73
2019-02-16T19:50:37.719Z,12.60
2019-02-16T19:53:14.729Z,13.10
2019-02-16T19:55:51.240Z,14.13
2019-02-16T19:58:28.568Z,16.93
2019-02-16T20:01:07.413Z,15.43
2019-02-16T20:05:52.556Z,12.50
2019-02-16T20:08:26.417Z,14.23
2019-02-16T20:11:01.485Z,15.77
2019-02-16T20:13:35.388Z,12.80
2019-02-16T20:16:11.130Z,13.40
2019-02-16T20:18:56.372Z,14.73
2019-02-16T20:21:36.934Z,14.30
2019-02-16T20:24:10.815Z,15.40
2019-02-16T20:26:48.676Z,12.57
2019-02-16T20:29:24.686Z,17.33
2019-02-16T20:32:15.626Z,13.97
2019-02-16T20:34:48.770Z,14.70
2019-02-16T20:37:24.701Z,14.97
2019-02-16T20:40:05.779Z,14.57
2019-02-16T20:42:40.517Z,15.17
2019-02-16T20:45:30.793Z,13.90
2019-02-16T20:48:09.449Z,21.33
2019-02-16T20:50:45.441Z,15.47
2019-02-16T20:53:22.362Z,16.57
2019-02-16T20:55:58.137Z,37.23
2019-02-16T20:58:35.045Z,15.67
2019-02-16T21:01:09.786Z,18.00
2019-02-16T21:03:44.880Z,18.97
2019-02-16T21:06:18.733Z,18.80
2019-02-16T21:09:59.587Z,13.77
2019-02-16T21:12:38.515Z,16.27
2019-02-16T21:15:12.359Z,16.83
2019-02-16T21:17:49.488Z,15.90
2019-02-16T21:20:24.241Z,18.30
2019-02-16T21:23:04.565Z,16.93
2019-02-16T21:25:39.493Z,15.13
2019-02-16T21:29:14.849Z,19.73
2019-02-16T21:31:53.717Z,14.03
2019-02-16T21:34:29.957Z,17.30
2019-02-16T21:37:06.502Z,19.43
2019-02-16T21:39:42.582Z,15.10
2019-02-16T21:42:22.581Z,17.43
2019-02-16T21:44:56.440Z,17.53
2019-02-16T21:47:38.680Z,16.27
2019-02-16T21:50:13.681Z,16.17
2019-02-16T21:52:49.621Z,18.03
2019-02-16T21:55:30.410Z,18.23
2019-02-16T21:58:08.404Z,15.93
2019-02-16T22:00:42.389Z,18.17
2019-02-16T22:03:22.805Z,19.53
2019-02-16T22:05:57.985Z,18.67
2019-02-16T22:08:33.756Z,15.93
2019-02-16T22:11:08.330Z,20.37
2019-02-16T22:13:37.926Z,19.93
2019-02-16T22:16:07.597Z,18.10
2019-02-16T22:18:38.002Z,16.43
2019-02-16T22:21:07.626Z,16.60
2019-02-16T22:23:37.408Z,19.37
2019-02-16T22:26:08.274Z,16.37
2019-02-16T22:28:37.887Z,17.00
2019-02-16T22:31:07.465Z,20.90
2019-02-16T22:33:37.077Z,20.03
2019-02-16T22:36:06.714Z,19.67
2019-02-16T22:38:36.359Z,20.87
2019-02-16T22:41:05.989Z,21.67
2019-02-16T22:43:35.581Z,21.13
2019-02-16T22:46:05.217Z,22.00
2019-02-16T22:48:35.233Z,21.77
2019-02-16T22:51:04.838Z,27.43
2019-02-16T22:53:34.450Z,22.47
2019-02-16T22:56:05.285Z,20.50
2019-02-16T22:58:34.949Z,24.47
2019-02-16T23:01:04.579Z,22.73
2019-02-16T23:03:34.209Z,19.57
2019-02-16T23:06:04.592Z,23.40
2019-02-16T23:08:34.209Z,20.67
2019-02-16T23:11:05.179Z,20.30
2019-02-16T23:13:34.780Z,23.77
2019-02-16T23:16:04.437Z,23.17
2019-02-16T23:18:34.065Z,24.20
2019-02-16T23:21:06.888Z,28.10
2019-02-16T23:23:36.507Z,22.20
2019-02-16T23:26:06.122Z,23.63
2019-02-16T23:28:39.257Z,22.97
2019-02-16T23:31:06.847Z,21.10
2019-02-16T23:33:36.443Z,20.63
2019-02-16T23:36:06.134Z,30.27
2019-02-16T23:38:35.729Z,23.83
2019-02-16T23:41:06.637Z,25.23
2019-02-16T23:43:36.228Z,25.10
2019-02-16T23:46:05.813Z,26.00
2019-02-16T23:48:35.459Z,22.43
2019-02-16T23:51:05.047Z,23.47
2019-02-16T23:53:34.670Z,23.87
2019-02-16T23:56:04.255Z,27.67
2019-02-16T23:58:33.911Z,30.67
